Cmb Sakura — 3EGO3 — position and weather

sailwx.info

Track history (hours):
 
Tides and Currents Weather Stations Pressure Air Temp Water Temp Dewpoint Dewpoint Depression Visibility Wind Speed Wind Dir Waves Ship Positions

Cmb Sakura

Last reported at 2017-Apr-25 23:34 UTC. Time now 2017-Apr-30 22:36 UTC.
Position S 19°57' E 059°01'.

Length 225 m; draft 11.1 m.

Type: Cargo ship. MMSI: 371784000.

Date/timePositionNaut miles runAvg speedWind from/ knotsBaromVisibWave heightAir tempDewpointWater temp
2017-Apr-25 23:34S 19°57' E 059°01'712.4
2017-Apr-25 22:58S 20°01' E 058°55'712.2
2017-Apr-25 22:23S 20°06' E 058°48'812.2
2017-Apr-25 21:42S 20°10' E 058°41'412.2
2017-Apr-25 21:25S 20°12' E 058°38'612.2
2017-Apr-25 20:56S 20°16' E 058°33'612.2
2017-Apr-25 20:28S 20°19' E 058°28'612.1
2017-Apr-25 20:00S 20°23' E 058°24'612.2
2017-Apr-25 19:30S 20°26' E 058°18'612.2
2017-Apr-25 19:00S 20°30' E 058°13'612.0
2017-Apr-25 18:30S 20°34' E 058°08'612.1
2017-Apr-25 18:01S 20°37' E 058°03'712.3
2017-Apr-25 17:28S 20°41' E 057°57'612.1
2017-Apr-25 16:56S 20°45' E 057°52'612.2
2017-Apr-25 16:26S 20°48' E 057°46'512.1
2017-Apr-25 15:59S 20°52' E 057°42'  
Track history (hours):
 
Tides and Currents Weather Stations Pressure Air Temp Water Temp Dewpoint Dewpoint Depression Visibility Wind Speed Wind Dir Waves Ship Positions

Cmb Sakura

Last reported at 2017-Apr-25 23:34 UTC. Time now 2017-Apr-30 22:36 UTC.
Position S 19°57' E 059°01'.

Length 225 m; draft 11.1 m.

Type: Cargo ship. MMSI: 371784000.

Date/timePositionNaut miles runAvg speedWind from/ knotsBaromVisibWave heightAir tempDewpointWater temp
2017-Apr-25 23:34S 19°57' E 059°01'712.4
2017-Apr-25 22:58S 20°01' E 058°55'712.2
2017-Apr-25 22:23S 20°06' E 058°48'812.2
2017-Apr-25 21:42S 20°10' E 058°41'412.2
2017-Apr-25 21:25S 20°12' E 058°38'612.2
2017-Apr-25 20:56S 20°16' E 058°33'612.2
2017-Apr-25 20:28S 20°19' E 058°28'612.1
2017-Apr-25 20:00S 20°23' E 058°24'612.2
2017-Apr-25 19:30S 20°26' E 058°18'612.2
2017-Apr-25 19:00S 20°30' E 058°13'612.0
2017-Apr-25 18:30S 20°34' E 058°08'612.1
2017-Apr-25 18:01S 20°37' E 058°03'712.3
2017-Apr-25 17:28S 20°41' E 057°57'612.1
2017-Apr-25 16:56S 20°45' E 057°52'612.2
2017-Apr-25 16:26S 20°48' E 057°46'512.1
2017-Apr-25 15:59S 20°52' E 057°42'  

Dump ship's entire track history